Scio, Michigan
Current Conditions -  °F | °C
As of 5:19 PM on Sunday 23 Nov 2014 (Local Time) from KARB Reporting Station
Light Rain Light Rain  
Wind Chill: 50°   Ceiling: 4000
Heat Index: 50°   Visibility: 7mi
Dew Point: 46°   Wind: 5mph
Humidity: 86%   Direction: 120°ESE
Pressure: 29.64"   Gusts: NA
Location:  42.3528°N, 83.8974°W
Report Text: KARB 232219Z AUTO 12004KT 7SM -RA FEW024 BKN040 OVC048 10/08 A2964 RMK AO2 P0001 T01000078
Loading
Personal Weather Stations






























Interactive Weather Map New forecast layout! Learn more

10-Day Weather Forecast

Advertisements
Track Severe Weather on mobile